createdAt,value
2023-10-06T00:00:35.004Z,10.93
2023-10-06T00:03:07.275Z,15.20
2023-10-06T00:05:35.180Z,12.83
2023-10-06T00:08:06.313Z,11.43
2023-10-06T00:10:33.687Z,14.37
2023-10-06T00:13:00.928Z,13.37
2023-10-06T00:15:41.181Z,11.03
2023-10-06T00:18:09.315Z,11.67
2023-10-06T00:20:40.862Z,13.30
2023-10-06T00:23:09.293Z,10.23
2023-10-06T00:25:43.555Z,12.10
2023-10-06T00:28:20.884Z,14.83
2023-10-06T00:30:49.271Z,13.83
2023-10-06T00:33:16.545Z,12.93
2023-10-06T00:35:45.481Z,12.93
2023-10-06T00:38:22.293Z,13.70
2023-10-06T00:40:52.703Z,14.30
2023-10-06T00:43:41.124Z,14.40
2023-10-06T00:46:08.944Z,13.90
2023-10-06T00:48:40.017Z,14.63
2023-10-06T00:51:27.141Z,14.47
2023-10-06T00:53:57.817Z,14.57
2023-10-06T00:56:26.714Z,17.20
2023-10-06T00:58:54.658Z,14.40
2023-10-06T01:01:23.382Z,13.50
2023-10-06T01:04:07.515Z,14.00
2023-10-06T01:06:37.878Z,13.83
2023-10-06T01:09:17.210Z,16.97
2023-10-06T01:11:45.611Z,13.10
2023-10-06T01:14:15.998Z,15.97
2023-10-06T01:16:44.166Z,15.30
2023-10-06T01:19:34.472Z,16.20
2023-10-06T01:22:27.928Z,15.23
2023-10-06T01:24:55.394Z,14.57
2023-10-06T01:27:31.648Z,15.63
2023-10-06T01:30:16.856Z,11.97
2023-10-06T01:32:47.679Z,19.13
2023-10-06T01:35:16.577Z,12.83
2023-10-06T01:37:44.786Z,18.77
2023-10-06T01:40:31.049Z,15.53
2023-10-06T01:42:58.302Z,15.47
2023-10-06T01:45:25.309Z,14.43
2023-10-06T01:48:12.232Z,13.37
2023-10-06T01:50:41.143Z,12.27
2023-10-06T01:53:08.535Z,14.30
2023-10-06T01:55:39.511Z,11.87
2023-10-06T01:58:12.419Z,11.67
2023-10-06T02:00:39.704Z,15.00
2023-10-06T02:03:11.611Z,12.70
2023-10-06T02:05:42.208Z,13.83
2023-10-06T02:08:11.223Z,17.43
2023-10-06T02:10:38.713Z,10.27
2023-10-06T02:13:09.165Z,14.93
2023-10-06T02:15:36.191Z,10.70
2023-10-06T02:18:04.002Z,13.13
2023-10-06T02:20:31.924Z,19.60
2023-10-06T02:22:59.623Z,10.67
2023-10-06T02:25:27.576Z,14.47
2023-10-06T02:27:54.875Z,12.40
2023-10-06T02:30:36.845Z,11.73
2023-10-06T02:33:06.954Z,14.07
2023-10-06T02:35:44.018Z,15.73
2023-10-06T02:38:11.075Z,13.87
2023-10-06T02:40:46.992Z,16.20
2023-10-06T02:43:17.570Z,11.33
2023-10-06T02:45:45.114Z,13.83
2023-10-06T02:48:23.277Z,10.40
2023-10-06T02:50:51.470Z,11.30
2023-10-06T02:53:24.904Z,14.47
2023-10-06T02:55:58.095Z,13.27
2023-10-06T02:58:28.882Z,11.57
2023-10-06T03:00:57.068Z,16.03
2023-10-06T03:03:34.739Z,13.07
2023-10-06T03:06:08.584Z,12.03
2023-10-06T03:08:36.716Z,13.60
2023-10-06T03:11:04.787Z,14.20
2023-10-06T03:13:38.015Z,11.97
2023-10-06T03:16:11.915Z,13.63
2023-10-06T03:18:40.742Z,15.60
2023-10-06T03:21:13.972Z,10.27
2023-10-06T03:24:01.813Z,15.03
2023-10-06T03:26:35.808Z,14.93
2023-10-06T03:29:04.729Z,14.53
2023-10-06T03:31:47.707Z,9.33
2023-10-06T03:34:23.929Z,8.93
2023-10-06T03:36:53.802Z,10.80
2023-10-06T03:39:32.929Z,12.20
2023-10-06T03:42:02.237Z,10.53
2023-10-06T03:44:31.817Z,11.50
2023-10-06T03:47:03.023Z,12.17
2023-10-06T03:49:35.136Z,16.07
2023-10-06T03:52:04.359Z,18.27
2023-10-06T03:54:31.448Z,18.43
2023-10-06T03:56:59.398Z,13.77
2023-10-06T03:59:26.469Z,15.77
2023-10-06T04:01:53.668Z,16.40
2023-10-06T04:04:23.903Z,13.67
2023-10-06T04:06:51.723Z,15.53
2023-10-06T04:09:28.716Z,14.73
2023-10-06T04:11:58.052Z,15.97
2023-10-06T04:14:28.810Z,15.60
2023-10-06T04:16:55.898Z,14.43
2023-10-06T04:19:23.227Z,14.13
2023-10-06T04:21:50.143Z,17.23
2023-10-06T04:24:17.130Z,14.90
2023-10-06T04:26:44.344Z,12.40
2023-10-06T04:29:14.657Z,14.23
2023-10-06T04:31:41.977Z,14.07
2023-10-06T04:34:10.840Z,14.23
2023-10-06T04:36:39.150Z,13.70
2023-10-06T04:39:11.150Z,15.30
2023-10-06T04:41:38.431Z,18.90
2023-10-06T04:44:05.764Z,14.23
2023-10-06T04:46:32.749Z,19.97
2023-10-06T04:48:59.700Z,16.83
2023-10-06T04:51:28.419Z,14.27
2023-10-06T04:53:56.307Z,18.57
2023-10-06T04:56:23.772Z,17.87
2023-10-06T04:58:50.661Z,13.33
2023-10-06T05:01:17.920Z,12.67
2023-10-06T05:03:45.826Z,15.20
2023-10-06T05:06:18.429Z,16.50
2023-10-06T05:08:50.046Z,20.27
2023-10-06T05:11:19.574Z,13.87
2023-10-06T05:13:54.029Z,16.53
2023-10-06T05:16:24.290Z,18.43
2023-10-06T05:18:52.351Z,17.53
2023-10-06T05:21:20.309Z,14.97
2023-10-06T05:23:47.863Z,14.53
2023-10-06T05:26:16.549Z,16.37
2023-10-06T05:28:44.793Z,11.33
2023-10-06T05:31:12.597Z,18.13
2023-10-06T05:33:41.926Z,13.70
2023-10-06T05:36:15.862Z,17.43
2023-10-06T05:38:46.808Z,15.30
2023-10-06T05:41:14.540Z,11.83
2023-10-06T05:43:42.980Z,12.93
2023-10-06T05:46:10.880Z,15.83
2023-10-06T05:48:39.591Z,14.57
2023-10-06T05:51:10.316Z,13.70
2023-10-06T05:53:44.864Z,12.57
2023-10-06T05:56:13.076Z,14.73
2023-10-06T05:58:41.805Z,19.23
2023-10-06T06:01:12.606Z,15.20
2023-10-06T06:03:46.169Z,14.77
2023-10-06T06:06:16.150Z,16.40
2023-10-06T06:08:49.288Z,18.57
2023-10-06T06:11:17.694Z,22.40
2023-10-06T06:13:48.232Z,19.10
2023-10-06T06:16:20.254Z,17.97
2023-10-06T06:18:49.303Z,15.63
2023-10-06T06:21:17.690Z,20.27
2023-10-06T06:23:47.575Z,24.37
2023-10-06T06:26:18.252Z,22.00
2023-10-06T06:28:46.034Z,21.43
2023-10-06T06:31:20.366Z,20.37
2023-10-06T06:33:57.945Z,22.47
2023-10-06T06:36:26.586Z,23.00
2023-10-06T06:38:55.077Z,21.13
2023-10-06T06:45:29.968Z,18.83
2023-10-06T06:47:57.260Z,21.97
2023-10-06T06:50:24.388Z,17.97
2023-10-06T06:52:55.524Z,20.57
2023-10-06T06:55:22.750Z,16.17
2023-10-06T06:57:56.793Z,19.77
2023-10-06T07:00:25.681Z,16.33
2023-10-06T07:02:57.348Z,18.53
2023-10-06T07:05:24.536Z,21.90
2023-10-06T07:07:52.394Z,16.33
2023-10-06T07:10:23.860Z,14.87
2023-10-06T07:12:52.343Z,16.33
2023-10-06T07:15:20.810Z,16.33
2023-10-06T07:17:47.844Z,17.70
2023-10-06T07:20:17.906Z,17.87
2023-10-06T07:22:46.767Z,17.27
2023-10-06T07:25:17.902Z,17.53
2023-10-06T07:27:47.431Z,19.93
2023-10-06T07:30:18.142Z,16.50
2023-10-06T07:32:45.956Z,22.10
2023-10-06T07:35:15.429Z,16.53
2023-10-06T07:37:44.274Z,17.20
2023-10-06T07:40:15.995Z,18.50
2023-10-06T07:42:47.886Z,17.00
2023-10-06T07:45:14.946Z,15.03
2023-10-06T07:47:45.481Z,15.20
2023-10-06T07:50:16.890Z,14.97
2023-10-06T07:52:45.598Z,18.33
2023-10-06T07:55:13.113Z,16.83
2023-10-06T07:57:46.985Z,20.67
2023-10-06T08:00:32.020Z,15.93
2023-10-06T08:03:01.635Z,13.60
2023-10-06T08:05:31.115Z,14.73
2023-10-06T08:07:59.994Z,15.47
2023-10-06T08:10:27.452Z,11.80
2023-10-06T08:13:03.430Z,10.33
2023-10-06T08:15:33.966Z,13.07
2023-10-06T08:18:01.884Z,35.67
2023-10-06T08:20:31.065Z,16.73
2023-10-06T08:22:58.856Z,14.93
2023-10-06T08:25:26.697Z,15.00
2023-10-06T08:27:54.065Z,12.90
2023-10-06T08:30:21.552Z,13.33
2023-10-06T08:32:53.654Z,20.27
2023-10-06T08:35:21.572Z,18.57
2023-10-06T08:37:51.173Z,15.77
2023-10-06T08:40:20.760Z,17.00
2023-10-06T08:42:50.072Z,12.93
2023-10-06T08:45:24.872Z,13.77
2023-10-06T08:48:02.464Z,17.33
2023-10-06T08:50:33.291Z,36.63
2023-10-06T08:53:11.050Z,11.97
2023-10-06T08:55:39.914Z,13.30
2023-10-06T08:58:10.050Z,12.80
2023-10-06T09:00:38.206Z,12.03
2023-10-06T09:03:09.152Z,13.70
2023-10-06T09:05:40.043Z,16.27
2023-10-06T09:08:10.170Z,12.77
2023-10-06T09:10:41.674Z,16.53
2023-10-06T09:13:09.804Z,13.60
2023-10-06T09:15:36.957Z,11.60
2023-10-06T09:18:25.408Z,18.87
2023-10-06T09:20:52.839Z,14.87
2023-10-06T09:23:33.827Z,9.87
2023-10-06T09:26:02.598Z,19.73
2023-10-06T09:28:32.359Z,14.40
2023-10-06T09:31:02.425Z,13.87
2023-10-06T09:33:36.786Z,12.73
2023-10-06T09:36:08.709Z,7.50
2023-10-06T09:38:37.793Z,8.47
2023-10-06T09:41:09.071Z,10.73
2023-10-06T09:43:39.724Z,10.50
2023-10-06T09:46:17.387Z,10.83
2023-10-06T09:48:44.652Z,8.60
2023-10-06T09:51:13.918Z,10.27
2023-10-06T09:53:48.412Z,11.40
2023-10-06T09:56:18.785Z,7.63
2023-10-06T09:58:49.921Z,7.87
2023-10-06T10:01:17.553Z,12.13
2023-10-06T10:03:45.487Z,7.60
2023-10-06T10:06:15.403Z,7.10
2023-10-06T10:08:42.914Z,9.00
2023-10-06T10:11:30.349Z,10.23
2023-10-06T10:14:09.367Z,8.00
2023-10-06T10:17:03.284Z,6.93
2023-10-06T10:19:31.460Z,7.63
2023-10-06T10:21:59.911Z,5.83
2023-10-06T10:26:57.216Z,4.97
2023-10-06T10:29:25.455Z,8.77
2023-10-06T10:32:01.306Z,8.73
2023-10-06T10:34:39.725Z,7.70
2023-10-06T10:37:09.439Z,8.10
2023-10-06T10:39:51.260Z,9.87
2023-10-06T10:42:39.271Z,10.20
2023-10-06T10:45:35.893Z,7.50
2023-10-06T10:48:08.148Z,8.50
2023-10-06T10:50:53.883Z,9.03
2023-10-06T10:53:23.799Z,8.43
2023-10-06T10:55:51.840Z,6.60
2023-10-06T10:58:51.203Z,6.70
2023-10-06T11:01:32.901Z,9.93
2023-10-06T11:04:34.832Z,7.63
2023-10-06T11:07:12.919Z,9.13
2023-10-06T11:09:41.733Z,11.77
2023-10-06T11:12:24.449Z,7.10
2023-10-06T11:15:04.611Z,9.10
2023-10-06T11:17:33.514Z,7.30
2023-10-06T11:20:05.221Z,8.30
2023-10-06T11:22:34.447Z,8.87
2023-10-06T11:25:07.756Z,6.73
2023-10-06T11:27:35.022Z,8.77
2023-10-06T11:30:09.936Z,10.07
2023-10-06T11:32:38.511Z,11.47
2023-10-06T11:35:06.329Z,12.23
2023-10-06T11:37:33.423Z,9.00
2023-10-06T11:40:00.488Z,10.17
2023-10-06T11:42:42.508Z,8.87
2023-10-06T11:45:26.430Z,15.87
2023-10-06T11:47:54.638Z,11.73
2023-10-06T11:50:27.172Z,11.07
2023-10-06T11:52:54.401Z,14.43
2023-10-06T11:55:38.759Z,10.17
2023-10-06T11:58:09.902Z,15.37
2023-10-06T12:00:40.061Z,15.57
2023-10-06T12:03:14.223Z,14.33
2023-10-06T12:05:53.814Z,14.77
2023-10-06T12:08:20.752Z,13.67
2023-10-06T12:10:49.779Z,11.83
2023-10-06T12:13:17.052Z,11.83
2023-10-06T12:15:46.969Z,12.00
2023-10-06T12:18:17.564Z,7.83
2023-10-06T12:20:44.583Z,10.67
2023-10-06T12:23:11.789Z,11.80
2023-10-06T12:25:38.997Z,13.67
2023-10-06T12:28:06.428Z,10.17
2023-10-06T12:30:33.405Z,14.53
2023-10-06T12:33:00.502Z,10.17
2023-10-06T12:35:30.153Z,12.43
2023-10-06T12:37:58.009Z,11.93
2023-10-06T12:40:25.066Z,13.70
2023-10-06T12:42:52.062Z,10.60
2023-10-06T12:45:19.278Z,13.50
2023-10-06T12:47:50.574Z,16.00
2023-10-06T12:50:21.563Z,11.53
2023-10-06T12:52:52.952Z,10.63
2023-10-06T12:55:25.946Z,9.23
2023-10-06T12:57:54.368Z,9.00
2023-10-06T13:00:21.765Z,13.70
2023-10-06T13:02:49.904Z,11.87
2023-10-06T13:05:23.929Z,16.70
2023-10-06T13:07:52.725Z,21.10
2023-10-06T13:10:23.735Z,12.40
2023-10-06T13:12:51.973Z,17.67
2023-10-06T13:15:20.549Z,15.97
2023-10-06T13:17:52.215Z,17.07
2023-10-06T13:20:19.305Z,17.97
2023-10-06T13:22:50.748Z,20.47
2023-10-06T13:25:18.990Z,16.87
2023-10-06T13:27:49.964Z,16.00
2023-10-06T13:30:18.273Z,19.83
2023-10-06T13:32:51.815Z,18.50
2023-10-06T13:35:21.950Z,19.43
2023-10-06T13:37:49.416Z,24.37
2023-10-06T13:40:17.999Z,27.17
2023-10-06T13:42:49.277Z,16.83
2023-10-06T13:45:19.386Z,13.93
2023-10-06T13:47:51.924Z,15.63
2023-10-06T13:50:19.730Z,12.50
2023-10-06T13:52:50.376Z,15.90
2023-10-06T13:55:19.347Z,12.13
2023-10-06T13:57:48.272Z,13.03
2023-10-06T14:00:35.983Z,16.97
2023-10-06T14:03:04.877Z,16.73
2023-10-06T14:05:35.105Z,16.97
2023-10-06T14:08:08.926Z,14.47
2023-10-06T14:10:39.653Z,11.53
2023-10-06T14:13:18.098Z,13.30
2023-10-06T14:15:58.451Z,10.10
2023-10-06T14:18:26.689Z,14.37
2023-10-06T14:20:58.273Z,18.30
2023-10-06T14:23:29.632Z,13.33
2023-10-06T14:26:02.041Z,14.90
2023-10-06T14:28:29.501Z,13.27
2023-10-06T14:31:15.962Z,14.27
2023-10-06T14:33:48.672Z,14.17
2023-10-06T14:36:15.857Z,13.00
2023-10-06T14:38:42.916Z,13.93
2023-10-06T14:41:20.868Z,13.80
2023-10-06T14:44:09.573Z,13.73
2023-10-06T14:46:38.601Z,11.63
2023-10-06T14:49:14.329Z,8.73
2023-10-06T14:51:43.443Z,9.23
2023-10-06T14:54:13.643Z,10.97
2023-10-06T14:56:41.554Z,17.70
2023-10-06T14:59:11.695Z,11.23
2023-10-06T15:01:41.232Z,12.47
2023-10-06T15:04:14.580Z,10.00
2023-10-06T15:06:42.326Z,10.30
2023-10-06T15:09:09.982Z,7.27
2023-10-06T15:11:41.467Z,11.23
2023-10-06T15:14:12.193Z,8.10
2023-10-06T15:16:39.616Z,9.47
2023-10-06T15:19:07.259Z,9.43
2023-10-06T15:21:40.320Z,8.93
2023-10-06T15:24:12.030Z,10.17
2023-10-06T15:26:44.190Z,11.90
2023-10-06T15:29:12.727Z,7.63
2023-10-06T15:31:40.096Z,8.80
2023-10-06T15:34:08.977Z,8.77
2023-10-06T15:36:36.977Z,7.23
2023-10-06T15:39:18.857Z,9.53
2023-10-06T15:41:47.097Z,6.10
2023-10-06T15:44:15.970Z,7.33
2023-10-06T15:46:44.328Z,8.17
2023-10-06T15:49:18.251Z,9.90
2023-10-06T15:51:48.643Z,8.33
2023-10-06T15:54:16.915Z,6.40
2023-10-06T15:56:44.704Z,9.40
2023-10-06T15:59:16.370Z,13.07
2023-10-06T16:01:45.240Z,8.17
2023-10-06T16:04:15.892Z,10.00
2023-10-06T16:06:47.075Z,7.50
2023-10-06T16:09:17.034Z,9.00
2023-10-06T16:11:44.735Z,8.67
2023-10-06T16:14:16.453Z,6.90
2023-10-06T16:16:44.764Z,7.47
2023-10-06T16:19:14.410Z,9.13
2023-10-06T16:21:42.835Z,12.53
2023-10-06T16:24:13.092Z,7.93
2023-10-06T16:26:40.452Z,10.43
2023-10-06T16:29:08.873Z,8.30
2023-10-06T16:31:36.547Z,7.03
2023-10-06T16:34:04.540Z,6.80
2023-10-06T16:36:32.125Z,6.13
2023-10-06T16:38:59.030Z,10.53
2023-10-06T16:41:26.469Z,6.90
2023-10-06T16:43:57.410Z,7.53
2023-10-06T16:46:26.511Z,10.30
2023-10-06T16:48:53.770Z,10.93
2023-10-06T16:51:21.569Z,10.57
2023-10-06T16:53:51.739Z,11.93
2023-10-06T16:56:22.341Z,11.77
2023-10-06T16:58:49.976Z,7.90
2023-10-06T17:01:16.958Z,7.67
2023-10-06T17:03:44.063Z,11.57
2023-10-06T17:06:12.614Z,19.33
2023-10-06T17:08:41.159Z,12.03
2023-10-06T17:11:19.965Z,12.53
2023-10-06T17:13:48.698Z,9.93
2023-10-06T17:16:16.108Z,8.00
2023-10-06T17:18:43.951Z,10.20
2023-10-06T17:21:14.510Z,8.27
2023-10-06T17:23:41.759Z,9.97
2023-10-06T17:26:10.048Z,13.20
2023-10-06T17:28:37.243Z,6.83
2023-10-06T17:31:04.708Z,9.07
2023-10-06T17:33:32.032Z,12.17
2023-10-06T17:35:59.041Z,9.93
2023-10-06T17:38:26.016Z,11.23
2023-10-06T17:41:00.532Z,18.20
2023-10-06T17:43:28.425Z,19.20
2023-10-06T17:45:56.496Z,26.17
2023-10-06T17:48:24.841Z,22.73
2023-10-06T17:50:51.948Z,31.90
2023-10-06T17:53:19.072Z,23.13
2023-10-06T17:55:53.956Z,35.70
2023-10-06T17:58:21.643Z,26.17
2023-10-06T18:00:49.681Z,23.90
2023-10-06T18:03:18.746Z,32.17
2023-10-06T18:05:53.733Z,28.43
2023-10-06T18:08:21.339Z,27.80
2023-10-06T18:10:49.039Z,22.43
2023-10-06T18:13:17.029Z,27.73
2023-10-06T18:15:48.313Z,28.10
2023-10-06T18:18:15.443Z,22.27
2023-10-06T18:20:44.294Z,16.87
2023-10-06T18:23:12.609Z,22.20
2023-10-06T18:25:40.091Z,22.10
2023-10-06T18:28:08.633Z,17.57
2023-10-06T18:30:36.220Z,16.57
2023-10-06T18:33:04.233Z,13.80
2023-10-06T18:35:35.390Z,12.00
2023-10-06T18:38:02.590Z,14.07
2023-10-06T18:40:29.621Z,13.70
2023-10-06T18:42:56.822Z,10.97
2023-10-06T18:45:24.042Z,8.90
2023-10-06T18:47:50.963Z,10.67
2023-10-06T18:50:21.024Z,11.53
2023-10-06T18:52:48.233Z,10.60
2023-10-06T18:55:16.564Z,13.67
2023-10-06T18:57:43.652Z,16.83
2023-10-06T19:00:12.397Z,13.30
2023-10-06T19:02:40.792Z,15.83
2023-10-06T19:05:08.887Z,11.53
2023-10-06T19:07:37.100Z,12.47
2023-10-06T19:10:07.408Z,12.03
2023-10-06T19:12:35.703Z,11.27
2023-10-06T19:15:02.826Z,10.17
2023-10-06T19:17:29.865Z,6.73
2023-10-06T19:19:57.159Z,11.70
2023-10-06T19:22:24.574Z,11.17
2023-10-06T19:24:52.688Z,12.33
2023-10-06T19:27:19.622Z,12.47
2023-10-06T19:29:46.701Z,8.53
2023-10-06T19:32:14.003Z,11.10
2023-10-06T19:34:41.223Z,11.67
2023-10-06T19:37:12.070Z,11.03
2023-10-06T19:39:39.243Z,13.03
2023-10-06T19:42:09.942Z,9.13
2023-10-06T19:44:37.142Z,12.00
2023-10-06T19:47:04.540Z,7.07
2023-10-06T19:49:33.071Z,9.90
2023-10-06T19:52:00.076Z,9.20
2023-10-06T19:54:27.021Z,8.73
2023-10-06T19:56:54.138Z,8.60
2023-10-06T19:59:21.105Z,11.33
2023-10-06T20:01:48.153Z,8.97
2023-10-06T20:04:15.403Z,13.07
2023-10-06T20:06:42.452Z,13.87
2023-10-06T20:09:11.173Z,11.83
2023-10-06T20:11:42.322Z,14.87
2023-10-06T20:14:09.274Z,9.37
2023-10-06T20:16:36.259Z,9.17
2023-10-06T20:19:03.294Z,7.00
2023-10-06T20:21:30.838Z,8.17
2023-10-06T20:23:58.374Z,6.73
2023-10-06T20:26:25.417Z,7.53
2023-10-06T20:28:52.481Z,9.67
2023-10-06T20:31:19.839Z,8.37
2023-10-06T20:33:47.016Z,8.50
2023-10-06T20:36:14.052Z,6.77
2023-10-06T20:38:41.067Z,9.27
2023-10-06T20:41:08.091Z,12.60
2023-10-06T20:43:35.191Z,7.87
2023-10-06T20:46:06.045Z,8.27
2023-10-06T20:48:34.243Z,10.67
2023-10-06T20:51:03.107Z,11.20
2023-10-06T20:53:30.224Z,5.63
2023-10-06T20:56:04.468Z,14.97
2023-10-06T20:58:32.313Z,7.67
2023-10-06T21:01:07.897Z,7.57
2023-10-06T21:03:37.911Z,7.83
2023-10-06T21:06:05.105Z,8.70
2023-10-06T21:08:32.114Z,7.00
2023-10-06T21:11:03.493Z,10.43
2023-10-06T21:13:30.680Z,10.07
2023-10-06T21:15:57.928Z,7.03
2023-10-06T21:18:24.938Z,8.47
2023-10-06T21:20:51.912Z,7.73
2023-10-06T21:23:18.848Z,12.03
2023-10-06T21:25:46.010Z,9.60
2023-10-06T21:28:13.196Z,13.40
2023-10-06T21:30:40.226Z,12.57
2023-10-06T21:33:07.825Z,11.73
2023-10-06T21:35:35.608Z,7.97
2023-10-06T21:38:02.633Z,9.93
2023-10-06T21:40:29.591Z,11.77
2023-10-06T21:42:57.498Z,9.40
2023-10-06T21:45:25.336Z,14.43
2023-10-06T21:47:52.328Z,11.77
2023-10-06T21:50:19.281Z,10.27
2023-10-06T21:52:46.225Z,9.67
2023-10-06T21:55:13.182Z,7.03
2023-10-06T21:57:40.742Z,10.83
2023-10-06T22:00:26.217Z,13.60
2023-10-06T22:02:55.173Z,10.33
2023-10-06T22:05:22.633Z,9.90
2023-10-06T22:07:53.065Z,10.30
2023-10-06T22:10:20.161Z,10.80
2023-10-06T22:12:49.305Z,8.83
2023-10-06T22:15:16.398Z,14.47
2023-10-06T22:17:43.428Z,7.80
2023-10-06T22:20:10.865Z,10.80
2023-10-06T22:22:38.008Z,7.33
2023-10-06T22:25:06.145Z,11.07
2023-10-06T22:27:33.892Z,14.37
2023-10-06T22:30:00.985Z,9.50
2023-10-06T22:32:28.560Z,6.53
2023-10-06T22:34:55.834Z,9.47
2023-10-06T22:37:26.842Z,9.80
2023-10-06T22:39:53.950Z,8.87
2023-10-06T22:42:22.584Z,8.00
2023-10-06T22:44:49.686Z,10.20
2023-10-06T22:47:17.116Z,10.57
2023-10-06T22:49:44.333Z,9.17
2023-10-06T22:52:11.419Z,11.80
2023-10-06T22:54:38.392Z,7.77
2023-10-06T22:57:06.649Z,14.00
2023-10-06T22:59:33.676Z,13.17
2023-10-06T23:02:00.932Z,5.90
2023-10-06T23:04:28.120Z,5.90
2023-10-06T23:06:55.194Z,11.63
2023-10-06T23:09:22.249Z,14.43
2023-10-06T23:11:49.174Z,18.37
2023-10-06T23:14:16.207Z,15.03
2023-10-06T23:16:43.309Z,10.43
2023-10-06T23:19:14.484Z,7.47
2023-10-06T23:21:42.756Z,9.67
2023-10-06T23:24:15.722Z,10.63
2023-10-06T23:26:46.014Z,13.50
2023-10-06T23:29:13.784Z,13.43
2023-10-06T23:31:41.488Z,14.20
2023-10-06T23:34:08.807Z,9.37
2023-10-06T23:36:36.823Z,9.17
2023-10-06T23:39:06.526Z,15.23
2023-10-06T23:41:38.212Z,21.13
2023-10-06T23:44:08.273Z,12.60
2023-10-06T23:46:35.546Z,13.90
2023-10-06T23:49:02.559Z,17.53
2023-10-06T23:51:29.801Z,14.07
2023-10-06T23:53:59.141Z,17.83
2023-10-06T23:56:26.752Z,15.53
2023-10-06T23:58:54.316Z,17.03
